Time;durP1;ratioP1;P1;durP2;ratioP2;P2;SDS_P1;SDS_P2;PMS_P1;PMS_P2;Temp;Humidity;BMP_temperature;BMP_pressure;BME280_temperature;BME280_humidity;BME280_pressure;Samples;Min_cycle;Max_cycle;Signal;HPM_P1;HPM_P2
2021/07/31 00:01:40;;;;;;;2.60;1.00;;;;;;;;;;5008302;28;20056;-53
2021/07/31 00:04:07;;;;;;;2.15;1.00;;;;;;;;;;5012761;28;20041;-55
2021/07/31 00:06:34;;;;;;;5.00;1.25;;;;;;;;;;5014269;28;20092;-53
2021/07/31 00:09:00;;;;;;;1.05;1.05;;;;;;;;;;5011727;28;20096;-55
2021/07/31 00:11:27;;;;;;;1.08;1.00;;;;;;;;;;5011823;28;20089;-52
2021/07/31 00:13:54;;;;;;;4.15;1.05;;;;;;;;;;5021758;28;20041;-55
2021/07/31 00:16:21;;;;;;;1.00;1.00;;;;;;;;;;5019634;28;20052;-55
2021/07/31 00:18:48;;;;;;;1.00;0.90;;;;;;;;;;5013104;28;20061;-55
2021/07/31 00:21:19;;;;;;;2.55;1.20;;;;;;;;;;5012324;28;20073;-55
2021/07/31 00:23:46;;;;;;;1.23;1.23;;;;;;;;;;5010245;28;20037;-54
2021/07/31 00:26:13;;;;;;;0.90;0.90;;;;;;;;;;5012968;28;20038;-55
2021/07/31 00:28:40;;;;;;;0.90;0.90;;;;;;;;;;5010824;28;20096;-54
2021/07/31 00:31:06;;;;;;;1.10;1.00;;;;;;;;;;5028314;28;20042;-54
2021/07/31 00:33:33;;;;;;;0.80;0.80;;;;;;;;;;5012578;28;21409;-55
2021/07/31 00:36:00;;;;;;;1.23;0.85;;;;;;;;;;5009306;28;20078;-51
2021/07/31 00:38:26;;;;;;;1.05;0.98;;;;;;;;;;5013490;28;20034;-53
2021/07/31 00:40:53;;;;;;;1.10;1.00;;;;;;;;;;5011964;28;20034;-54
2021/07/31 00:43:20;;;;;;;3.28;1.00;;;;;;;;;;5012033;28;20041;-54
2021/07/31 00:45:46;;;;;;;1.55;0.90;;;;;;;;;;5012171;28;20049;-54
2021/07/31 00:48:13;;;;;;;1.00;0.90;;;;;;;;;;5010518;28;20119;-55
2021/07/31 00:50:40;;;;;;;1.00;1.00;;;;;;;;;;5012352;28;20591;-55
2021/07/31 00:53:07;;;;;;;2.05;0.90;;;;;;;;;;5011279;28;20088;-55
2021/07/31 00:55:36;;;;;;;1.20;1.10;;;;;;;;;;5004844;28;20030;-53
2021/07/31 00:58:02;;;;;;;3.00;1.10;;;;;;;;;;5012427;28;20049;-54
2021/07/31 01:00:29;;;;;;;1.75;1.08;;;;;;;;;;5011000;28;20116;-54
2021/07/31 01:02:56;;;;;;;1.65;1.10;;;;;;;;;;5012338;28;20042;-54
2021/07/31 01:05:23;;;;;;;1.17;1.08;;;;;;;;;;5010116;28;20042;-54
2021/07/31 01:07:50;;;;;;;1.73;1.00;;;;;;;;;;5009366;28;20046;-55
2021/07/31 01:10:18;;;;;;;1.45;1.13;;;;;;;;;;5012062;28;20046;-54
2021/07/31 01:12:46;;;;;;;1.00;1.00;;;;;;;;;;5010320;28;20045;-55
2021/07/31 01:15:13;;;;;;;1.00;1.00;;;;;;;;;;5027484;28;20543;-55
2021/07/31 01:17:39;;;;;;;1.10;1.00;;;;;;;;;;5011259;28;20042;-55
2021/07/31 01:20:07;;;;;;;1.20;1.05;;;;;;;;;;5003191;28;20129;-56
2021/07/31 01:22:33;;;;;;;1.17;0.90;;;;;;;;;;5011404;28;20084;-52
2021/07/31 01:25:01;;;;;;;1.35;1.25;;;;;;;;;;5009885;28;20072;-55
2021/07/31 01:27:28;;;;;;;1.90;1.00;;;;;;;;;;5012863;28;20081;-55
2021/07/31 01:29:54;;;;;;;3.00;1.20;;;;;;;;;;5008856;28;20682;-55
2021/07/31 01:32:21;;;;;;;1.95;0.90;;;;;;;;;;5010477;28;20049;-53
2021/07/31 01:34:48;;;;;;;1.13;1.00;;;;;;;;;;5010988;28;20136;-55
2021/07/31 01:37:14;;;;;;;1.85;0.90;;;;;;;;;;5007958;28;20422;-54
2021/07/31 01:39:41;;;;;;;2.25;0.90;;;;;;;;;;5010968;28;20525;-55
2021/07/31 01:42:08;;;;;;;1.80;1.73;;;;;;;;;;5010784;28;20113;-55
2021/07/31 01:44:35;;;;;;;1.60;1.50;;;;;;;;;;5008783;28;20098;-54
2021/07/31 01:47:02;;;;;;;1.35;1.00;;;;;;;;;;5011699;28;20403;-54
2021/07/31 01:49:29;;;;;;;1.10;1.00;;;;;;;;;;5009152;28;20514;-54
2021/07/31 01:51:55;;;;;;;6.72;1.17;;;;;;;;;;5010883;28;20092;-55
2021/07/31 01:54:23;;;;;;;1.00;1.00;;;;;;;;;;5011519;28;20104;-55
2021/07/31 01:56:49;;;;;;;1.40;1.00;;;;;;;;;;5008121;28;20042;-54
2021/07/31 01:59:17;;;;;;;1.40;1.25;;;;;;;;;;5011500;28;20065;-54
2021/07/31 02:01:43;;;;;;;1.33;1.00;;;;;;;;;;5004733;28;20510;-55
2021/07/31 02:04:10;;;;;;;1.08;1.00;;;;;;;;;;5009740;28;20120;-55
2021/07/31 02:06:37;;;;;;;1.38;1.27;;;;;;;;;;5011965;28;20046;-54
2021/07/31 02:09:04;;;;;;;1.10;1.10;;;;;;;;;;5010494;28;20092;-54
2021/07/31 02:11:31;;;;;;;2.83;1.00;;;;;;;;;;5010037;28;20085;-55
2021/07/31 02:13:57;;;;;;;1.30;1.10;;;;;;;;;;5007177;28;20076;-55
2021/07/31 02:16:25;;;;;;;1.42;1.30;;;;;;;;;;5008738;28;20034;-55
2021/07/31 02:18:52;;;;;;;5.07;1.20;;;;;;;;;;5010647;28;20098;-55
2021/07/31 02:21:20;;;;;;;1.00;1.00;;;;;;;;;;5010220;28;20041;-53
2021/07/31 02:23:47;;;;;;;1.45;1.30;;;;;;;;;;5011089;28;20064;-54
2021/07/31 02:26:13;;;;;;;1.08;1.08;;;;;;;;;;5007297;28;20084;-55
2021/07/31 02:28:40;;;;;;;2.80;0.95;;;;;;;;;;4993864;28;20085;-55
2021/07/31 02:31:07;;;;;;;1.40;1.00;;;;;;;;;;5011489;28;20045;-53
2021/07/31 02:33:33;;;;;;;1.23;1.20;;;;;;;;;;5009336;28;20089;-52
2021/07/31 02:36:03;;;;;;;1.20;1.20;;;;;;;;;;5010553;28;20553;-54
2021/07/31 02:38:30;;;;;;;6.63;1.63;;;;;;;;;;5010630;28;20467;-55
2021/07/31 02:40:57;;;;;;;4.68;1.63;;;;;;;;;;5008815;28;20041;-53
2021/07/31 02:43:23;;;;;;;1.42;1.05;;;;;;;;;;5009261;28;20088;-53
2021/07/31 02:45:51;;;;;;;1.25;1.25;;;;;;;;;;5010889;28;20049;-54
2021/07/31 02:48:18;;;;;;;2.75;1.23;;;;;;;;;;5010858;28;20442;-55
2021/07/31 02:50:44;;;;;;;1.13;1.13;;;;;;;;;;5013544;28;20128;-54
2021/07/31 02:53:11;;;;;;;1.55;0.90;;;;;;;;;;5007802;28;20393;-55
2021/07/31 02:55:38;;;;;;;1.77;1.05;;;;;;;;;;5008391;28;20491;-49
2021/07/31 02:58:05;;;;;;;1.02;1.02;;;;;;;;;;5008346;28;20034;-54
2021/07/31 03:00:32;;;;;;;1.70;1.10;;;;;;;;;;5017726;28;20042;-55
2021/07/31 03:02:58;;;;;;;1.27;1.23;;;;;;;;;;5010848;28;20045;-55
2021/07/31 03:05:26;;;;;;;1.50;1.20;;;;;;;;;;5007072;28;20038;-51
2021/07/31 03:07:52;;;;;;;3.30;1.20;;;;;;;;;;5008886;28;20049;-53
2021/07/31 03:10:19;;;;;;;1.60;1.00;;;;;;;;;;5004481;28;20124;-53
2021/07/31 03:12:46;;;;;;;1.75;1.10;;;;;;;;;;5013533;28;20609;-55
2021/07/31 03:15:12;;;;;;;1.38;1.27;;;;;;;;;;5010688;28;20100;-53
2021/07/31 03:17:39;;;;;;;3.42;1.20;;;;;;;;;;5007673;28;20031;-55
2021/07/31 03:20:06;;;;;;;1.83;1.70;;;;;;;;;;5008588;28;20034;-55
2021/07/31 03:22:33;;;;;;;1.30;1.20;;;;;;;;;;5007367;28;20478;-54
2021/07/31 03:25:00;;;;;;;3.35;1.48;;;;;;;;;;5008895;28;20153;-52
2021/07/31 03:27:27;;;;;;;1.25;1.20;;;;;;;;;;5005295;28;20117;-54
2021/07/31 03:29:53;;;;;;;1.33;1.00;;;;;;;;;;5006543;28;20042;-54
2021/07/31 03:32:20;;;;;;;1.55;1.33;;;;;;;;;;5010475;28;20132;-53
2021/07/31 03:34:47;;;;;;;2.67;1.23;;;;;;;;;;5006914;28;20670;-55
2021/07/31 03:37:13;;;;;;;1.10;1.10;;;;;;;;;;5008082;28;20049;-54
2021/07/31 03:39:40;;;;;;;2.22;1.88;;;;;;;;;;5010115;28;20084;-54
2021/07/31 03:42:07;;;;;;;1.40;1.10;;;;;;;;;;5008064;28;20037;-55
2021/07/31 03:44:33;;;;;;;2.08;1.10;;;;;;;;;;5010901;28;20034;-54
2021/07/31 03:47:00;;;;;;;1.25;1.25;;;;;;;;;;5007683;28;20080;-54
2021/07/31 03:49:27;;;;;;;1.15;1.15;;;;;;;;;;5008103;28;20046;-54
2021/07/31 03:51:54;;;;;;;1.88;1.13;;;;;;;;;;5020044;28;20053;-54
2021/07/31 03:54:21;;;;;;;3.50;1.20;;;;;;;;;;5011145;28;20053;-54
2021/07/31 03:56:47;;;;;;;1.45;1.33;;;;;;;;;;5009811;28;20690;-54
2021/07/31 03:59:14;;;;;;;1.38;1.33;;;;;;;;;;5006968;28;20038;-54
2021/07/31 04:01:41;;;;;;;1.45;1.35;;;;;;;;;;5007856;28;20058;-54
2021/07/31 04:04:08;;;;;;;1.35;1.35;;;;;;;;;;5010299;28;20034;-55
2021/07/31 04:06:35;;;;;;;2.00;1.05;;;;;;;;;;5007731;28;20050;-54
2021/07/31 04:09:02;;;;;;;1.30;1.20;;;;;;;;;;5009729;28;20085;-54
2021/07/31 04:11:28;;;;;;;1.50;1.38;;;;;;;;;;5008844;28;20045;-54
2021/07/31 04:13:55;;;;;;;2.90;1.88;;;;;;;;;;5005339;28;20068;-53
2021/07/31 04:16:22;;;;;;;2.05;1.58;;;;;;;;;;5010193;28;20124;-55
2021/07/31 04:18:49;;;;;;;2.78;1.13;;;;;;;;;;5007018;28;20462;-55
2021/07/31 04:21:16;;;;;;;1.20;1.20;;;;;;;;;;4991187;28;20038;-53
2021/07/31 04:23:43;;;;;;;1.50;1.20;;;;;;;;;;5009874;28;20133;-55
2021/07/31 04:26:13;;;;;;;2.95;1.50;;;;;;;;;;5007574;28;20088;-55
2021/07/31 04:28:40;;;;;;;2.50;1.33;;;;;;;;;;5007851;28;20038;-51
2021/07/31 04:31:14;;;;;;;2.55;1.08;;;;;;;;;;5007784;28;20095;-55
2021/07/31 04:33:43;;;;;;;2.97;1.40;;;;;;;;;;4994333;28;20392;-53
2021/07/31 04:36:09;;;;;;;2.05;1.58;;;;;;;;;;5009856;28;20129;-55
2021/07/31 04:38:36;;;;;;;1.20;1.20;;;;;;;;;;5008642;28;20096;-54
2021/07/31 04:41:04;;;;;;;2.00;1.65;;;;;;;;;;5008707;28;20602;-55
2021/07/31 04:43:31;;;;;;;1.85;1.75;;;;;;;;;;5009128;28;20577;-54
2021/07/31 04:45:58;;;;;;;1.50;1.40;;;;;;;;;;5007782;28;20073;-55
2021/07/31 04:48:25;;;;;;;1.77;1.27;;;;;;;;;;5009497;28;20053;-54
2021/07/31 04:50:56;;;;;;;3.03;1.30;;;;;;;;;;5011565;28;20111;-54
2021/07/31 04:53:23;;;;;;;1.27;1.25;;;;;;;;;;5012587;28;20038;-55
2021/07/31 04:55:50;;;;;;;2.15;1.40;;;;;;;;;;5009973;28;20425;-53
2021/07/31 04:58:17;;;;;;;3.25;1.42;;;;;;;;;;5010951;28;20069;-55
2021/07/31 05:00:43;;;;;;;1.58;1.20;;;;;;;;;;5012636;28;20121;-55
2021/07/31 05:03:10;;;;;;;2.00;1.90;;;;;;;;;;5010637;28;20346;-53
2021/07/31 05:05:37;;;;;;;3.10;1.10;;;;;;;;;;5011366;28;20099;-52
2021/07/31 05:08:04;;;;;;;1.38;1.35;;;;;;;;;;5012128;28;20038;-55
2021/07/31 05:10:30;;;;;;;1.45;1.33;;;;;;;;;;5010338;28;20077;-55
2021/07/31 05:12:57;;;;;;;1.33;1.33;;;;;;;;;;5018021;28;20069;-54
2021/07/31 05:15:24;;;;;;;4.10;1.50;;;;;;;;;;5010616;28;20084;-54
2021/07/31 05:17:51;;;;;;;2.33;1.50;;;;;;;;;;5012056;28;20402;-55
2021/07/31 05:20:17;;;;;;;1.40;1.30;;;;;;;;;;5011427;28;20352;-54
2021/07/31 05:22:44;;;;;;;1.20;1.20;;;;;;;;;;5009320;28;20042;-55
2021/07/31 05:25:11;;;;;;;1.33;1.10;;;;;;;;;;5012374;28;20076;-55
2021/07/31 05:27:37;;;;;;;2.13;1.98;;;;;;;;;;5010928;28;20049;-55
2021/07/31 05:30:05;;;;;;;1.10;1.10;;;;;;;;;;5010152;28;20050;-55
2021/07/31 05:32:35;;;;;;;1.63;1.10;;;;;;;;;;5011525;28;20577;-55
2021/07/31 05:35:02;;;;;;;2.15;1.20;;;;;;;;;;5009618;28;20046;-54
2021/07/31 05:37:31;;;;;;;1.30;1.20;;;;;;;;;;5011463;28;20072;-55
2021/07/31 05:39:59;;;;;;;1.40;1.30;;;;;;;;;;5010287;28;20046;-55
2021/07/31 05:42:26;;;;;;;1.48;1.38;;;;;;;;;;5010212;28;20490;-54
2021/07/31 05:45:00;;;;;;;4.00;1.30;;;;;;;;;;5010832;28;20063;-55
2021/07/31 05:47:28;;;;;;;1.33;1.33;;;;;;;;;;5010459;28;20050;-53
2021/07/31 05:49:55;;;;;;;4.28;1.80;;;;;;;;;;5010007;28;20046;-56
2021/07/31 05:52:26;;;;;;;1.10;1.10;;;;;;;;;;5013205;28;20470;-54
2021/07/31 05:54:53;;;;;;;2.45;1.38;;;;;;;;;;5008309;28;20049;-55
2021/07/31 05:57:20;;;;;;;1.90;1.10;;;;;;;;;;5016203;28;20075;-55
2021/07/31 05:59:46;;;;;;;2.42;1.20;;;;;;;;;;5010141;28;20038;-55
2021/07/31 06:02:13;;;;;;;3.13;1.48;;;;;;;;;;5009756;28;20046;-55
2021/07/31 06:04:40;;;;;;;3.42;1.50;;;;;;;;;;5010977;28;20034;-55
2021/07/31 06:07:07;;;;;;;3.35;1.23;;;;;;;;;;5010256;28;20458;-55
2021/07/31 06:09:35;;;;;;;1.85;1.25;;;;;;;;;;5010687;28;20042;-56
2021/07/31 06:12:02;;;;;;;2.15;1.30;;;;;;;;;;5008126;28;20046;-55
2021/07/31 06:14:29;;;;;;;5.25;1.55;;;;;;;;;;5009163;28;20095;-54
2021/07/31 06:16:55;;;;;;;6.55;1.20;;;;;;;;;;5010879;28;20050;-55
2021/07/31 06:19:22;;;;;;;3.45;1.30;;;;;;;;;;5011739;28;20461;-55
2021/07/31 06:21:49;;;;;;;5.00;1.10;;;;;;;;;;5011405;28;20037;-53
2021/07/31 06:24:16;;;;;;;7.63;1.48;;;;;;;;;;5010921;28;20806;-55
2021/07/31 06:26:42;;;;;;;2.20;1.58;;;;;;;;;;5008696;28;20077;-54
2021/07/31 06:29:09;;;;;;;2.63;1.20;;;;;;;;;;5016484;28;20045;-55
2021/07/31 06:31:36;;;;;;;2.25;1.30;;;;;;;;;;5010257;28;20540;-55
2021/07/31 06:34:03;;;;;;;5.38;1.88;;;;;;;;;;5010812;28;20083;-54
2021/07/31 06:36:29;;;;;;;4.55;1.20;;;;;;;;;;5009966;28;20126;-54
2021/07/31 06:38:56;;;;;;;4.78;1.10;;;;;;;;;;5009435;28;20041;-56
2021/07/31 06:41:22;;;;;;;4.20;1.20;;;;;;;;;;5008332;28;20113;-55
2021/07/31 06:43:49;;;;;;;4.20;1.23;;;;;;;;;;5004305;28;20042;-55
2021/07/31 06:46:17;;;;;;;2.40;1.23;;;;;;;;;;5012604;28;20115;-55
2021/07/31 06:48:44;;;;;;;1.48;1.38;;;;;;;;;;5011801;28;20456;-53
2021/07/31 06:51:11;;;;;;;2.92;1.70;;;;;;;;;;5014653;28;20062;-54
2021/07/31 06:53:37;;;;;;;1.08;1.05;;;;;;;;;;5013297;28;20386;-53
2021/07/31 06:56:04;;;;;;;7.20;1.30;;;;;;;;;;5005022;28;20050;-51
2021/07/31 06:58:31;;;;;;;1.00;1.00;;;;;;;;;;5012169;28;20038;-54
2021/07/31 07:00:57;;;;;;;1.13;0.90;;;;;;;;;;5006015;28;20037;-52
2021/07/31 07:03:24;;;;;;;3.00;1.13;;;;;;;;;;5007283;28;20034;-52
2021/07/31 07:05:51;;;;;;;0.95;0.80;;;;;;;;;;5004763;28;20698;-56
2021/07/31 07:08:17;;;;;;;0.80;0.80;;;;;;;;;;5005459;28;20100;-55
2021/07/31 07:10:44;;;;;;;2.35;0.90;;;;;;;;;;5011775;28;20530;-55
2021/07/31 07:13:31;;;;;;;4.22;0.90;;;;;;;;;;5004920;28;20108;-53
2021/07/31 07:16:02;;;;;;;1.65;0.90;;;;;;;;;;5003778;28;20054;-55
2021/07/31 07:18:29;;;;;;;1.13;0.73;;;;;;;;;;5004064;28;20048;-54
2021/07/31 07:20:56;;;;;;;2.50;1.00;;;;;;;;;;5006140;28;20077;-55
2021/07/31 07:23:23;;;;;;;1.15;0.90;;;;;;;;;;5007076;28;20438;-55
2021/07/31 07:25:49;;;;;;;3.13;0.80;;;;;;;;;;5010238;28;20441;-55
2021/07/31 07:28:16;;;;;;;3.22;2.45;;;;;;;;;;5007431;28;20048;-53
2021/07/31 07:30:43;;;;;;;3.60;0.90;;;;;;;;;;5005178;28;20188;-54
2021/07/31 07:33:10;;;;;;;3.17;1.00;;;;;;;;;;5004920;28;20038;-54
2021/07/31 07:35:36;;;;;;;1.40;1.30;;;;;;;;;;5009318;28;20517;-56
2021/07/31 07:38:03;;;;;;;2.13;1.35;;;;;;;;;;5009496;28;20029;-56
2021/07/31 07:40:30;;;;;;;1.00;0.90;;;;;;;;;;5003653;28;20057;-54
2021/07/31 07:42:56;;;;;;;0.93;0.80;;;;;;;;;;5004593;28;20121;-55
2021/07/31 07:45:23;;;;;;;1.45;0.80;;;;;;;;;;5005258;28;20498;-56
2021/07/31 07:47:49;;;;;;;1.85;0.90;;;;;;;;;;5005993;28;20050;-55
2021/07/31 07:50:16;;;;;;;1.65;0.88;;;;;;;;;;5005967;28;20121;-56
2021/07/31 07:52:43;;;;;;;2.80;0.90;;;;;;;;;;5007973;28;20051;-56
2021/07/31 07:55:10;;;;;;;1.10;1.00;;;;;;;;;;5006763;28;20132;-52
2021/07/31 07:57:40;;;;;;;1.08;0.90;;;;;;;;;;5001430;28;20045;-56
2021/07/31 08:00:07;;;;;;;3.20;0.90;;;;;;;;;;5004184;28;20434;-56
2021/07/31 08:02:34;;;;;;;1.10;0.95;;;;;;;;;;5005487;28;20062;-55
2021/07/31 08:05:01;;;;;;;0.80;0.80;;;;;;;;;;5004627;28;20042;-55
2021/07/31 08:07:28;;;;;;;5.47;0.77;;;;;;;;;;5005610;28;20951;-56
2021/07/31 08:09:55;;;;;;;3.53;0.90;;;;;;;;;;5005086;28;20046;-55
2021/07/31 08:12:22;;;;;;;2.10;0.80;;;;;;;;;;5003790;28;20149;-55
2021/07/31 08:14:50;;;;;;;1.10;1.00;;;;;;;;;;5001768;28;20390;-56
2021/07/31 08:17:17;;;;;;;1.02;0.80;;;;;;;;;;5007127;28;20089;-56
2021/07/31 08:19:44;;;;;;;1.42;0.80;;;;;;;;;;5004250;28;20043;-52
2021/07/31 08:22:10;;;;;;;2.33;0.70;;;;;;;;;;5001677;28;20054;-54
2021/07/31 08:24:37;;;;;;;1.80;0.75;;;;;;;;;;5010480;28;20502;-56
2021/07/31 08:27:04;;;;;;;1.20;0.90;;;;;;;;;;5007071;28;20073;-56
2021/07/31 08:29:31;;;;;;;6.72;0.70;;;;;;;;;;5010276;28;20491;-54
2021/07/31 08:31:57;;;;;;;1.48;0.70;;;;;;;;;;5004841;28;20070;-54
2021/07/31 08:34:24;;;;;;;5.15;0.77;;;;;;;;;;5001494;28;20050;-57
2021/07/31 08:36:51;;;;;;;2.05;1.65;;;;;;;;;;5004807;28;20054;-56
2021/07/31 08:39:18;;;;;;;1.13;0.80;;;;;;;;;;5010996;28;20072;-55
2021/07/31 08:41:47;;;;;;;2.80;1.00;;;;;;;;;;5003777;28;20026;-56
2021/07/31 08:44:14;;;;;;;4.15;0.90;;;;;;;;;;5007967;28;20153;-56
2021/07/31 08:46:42;;;;;;;0.70;0.70;;;;;;;;;;5004105;28;20076;-55
2021/07/31 08:49:09;;;;;;;0.70;0.70;;;;;;;;;;5013421;28;20040;-54
2021/07/31 08:51:36;;;;;;;0.75;0.70;;;;;;;;;;5008419;28;20269;-56
2021/07/31 08:54:03;;;;;;;2.20;0.70;;;;;;;;;;5008189;28;20791;-56
2021/07/31 08:56:30;;;;;;;2.83;0.65;;;;;;;;;;5007485;28;20077;-57
2021/07/31 08:59:00;;;;;;;1.77;0.70;;;;;;;;;;5009767;28;20494;-56
2021/07/31 09:01:26;;;;;;;1.75;0.60;;;;;;;;;;5007472;28;20041;-53
2021/07/31 09:03:54;;;;;;;6.07;0.70;;;;;;;;;;5004685;28;20041;-54
2021/07/31 09:06:39;;;;;;;2.45;0.77;;;;;;;;;;5011231;28;20366;-55
2021/07/31 09:09:06;;;;;;;2.25;0.73;;;;;;;;;;5018246;28;20115;-56
2021/07/31 09:11:33;;;;;;;0.93;0.60;;;;;;;;;;5013043;28;20406;-55
2021/07/31 09:14:12;;;;;;;0.60;0.60;;;;;;;;;;5010842;28;20080;-56
2021/07/31 09:16:40;;;;;;;1.02;1.02;;;;;;;;;;5007782;28;20069;-57
2021/07/31 09:19:08;;;;;;;0.88;0.60;;;;;;;;;;5005687;28;20084;-56
2021/07/31 09:21:36;;;;;;;1.35;0.70;;;;;;;;;;5005409;28;20038;-55
2021/07/31 09:24:12;;;;;;;4.70;0.68;;;;;;;;;;5005598;28;20046;-56
2021/07/31 09:26:47;;;;;;;0.73;0.70;;;;;;;;;;5013438;28;20132;-56
2021/07/31 09:29:15;;;;;;;1.95;0.70;;;;;;;;;;5006080;28;20042;-56
2021/07/31 09:31:44;;;;;;;0.80;0.60;;;;;;;;;;5005650;28;20133;-56
2021/07/31 09:34:11;;;;;;;1.70;0.70;;;;;;;;;;5008891;28;20100;-55
2021/07/31 09:36:42;;;;;;;0.70;0.70;;;;;;;;;;5005869;28;20046;-54
2021/07/31 09:39:09;;;;;;;2.05;0.60;;;;;;;;;;5003966;28;21040;-55
2021/07/31 09:41:40;;;;;;;0.80;0.70;;;;;;;;;;5007435;28;20029;-57
2021/07/31 09:44:14;;;;;;;1.75;0.75;;;;;;;;;;5006541;28;20100;-57
2021/07/31 09:46:41;;;;;;;1.52;0.65;;;;;;;;;;5006174;28;20034;-57
2021/07/31 09:49:09;;;;;;;1.42;0.68;;;;;;;;;;5004074;28;20157;-55
2021/07/31 09:51:37;;;;;;;0.80;0.70;;;;;;;;;;5001830;28;20253;-57
2021/07/31 09:54:10;;;;;;;0.70;0.68;;;;;;;;;;5008585;28;20046;-57
2021/07/31 09:56:40;;;;;;;3.17;0.80;;;;;;;;;;5006920;28;20058;-57
2021/07/31 09:59:08;;;;;;;2.45;0.70;;;;;;;;;;5009442;28;20034;-57
2021/07/31 10:01:36;;;;;;;0.73;0.73;;;;;;;;;;5008075;28;20125;-57
2021/07/31 10:04:04;;;;;;;2.20;0.70;;;;;;;;;;5003428;28;20072;-54
2021/07/31 10:06:31;;;;;;;0.68;0.60;;;;;;;;;;5007584;28;20108;-57
2021/07/31 10:09:02;;;;;;;0.70;0.70;;;;;;;;;;5006508;28;20088;-56
2021/07/31 10:11:29;;;;;;;1.40;0.70;;;;;;;;;;5009655;28;20107;-56
2021/07/31 10:13:55;;;;;;;0.70;0.70;;;;;;;;;;5009905;28;20421;-55
2021/07/31 10:16:22;;;;;;;0.82;0.60;;;;;;;;;;5009469;28;20053;-57
2021/07/31 10:18:56;;;;;;;0.60;0.60;;;;;;;;;;5008995;28;20504;-55
2021/07/31 10:21:23;;;;;;;1.77;0.60;;;;;;;;;;5008262;28;20466;-54
2021/07/31 10:23:56;;;;;;;2.05;0.68;;;;;;;;;;5007831;28;20041;-57
2021/07/31 10:26:23;;;;;;;0.65;0.65;;;;;;;;;;5003201;28;20038;-57
2021/07/31 10:28:50;;;;;;;0.70;0.70;;;;;;;;;;5004882;28;20057;-56
2021/07/31 10:31:27;;;;;;;1.85;0.70;;;;;;;;;;5006543;28;20041;-56
2021/07/31 10:33:54;;;;;;;0.70;0.70;;;;;;;;;;5008323;28;20386;-55
2021/07/31 10:36:34;;;;;;;2.83;0.60;;;;;;;;;;5007808;28;20152;-56
2021/07/31 10:39:36;;;;;;;0.60;0.60;;;;;;;;;;5009766;28;20037;-57
2021/07/31 10:42:07;;;;;;;2.70;0.70;;;;;;;;;;5023301;28;20053;-57
2021/07/31 10:44:34;;;;;;;4.32;0.60;;;;;;;;;;5028702;28;20045;-57
2021/07/31 10:47:19;;;;;;;1.00;0.73;;;;;;;;;;5027376;28;20128;-57
2021/07/31 10:49:47;;;;;;;1.50;0.60;;;;;;;;;;5032988;28;20046;-56
2021/07/31 10:52:32;;;;;;;1.77;0.70;;;;;;;;;;5027560;28;20053;-56
2021/07/31 10:54:59;;;;;;;1.45;0.70;;;;;;;;;;5026546;28;20669;-56
2021/07/31 10:57:45;;;;;;;2.78;0.68;;;;;;;;;;5025789;28;20073;-57
2021/07/31 11:00:24;;;;;;;1.15;0.70;;;;;;;;;;5010465;28;20684;-56
2021/07/31 11:02:59;;;;;;;2.35;1.00;;;;;;;;;;5027658;28;20057;-57
2021/07/31 11:05:27;;;;;;;3.25;0.82;;;;;;;;;;5027490;28;20049;-55
2021/07/31 11:07:56;;;;;;;7.25;0.93;;;;;;;;;;5027913;28;20153;-57
2021/07/31 11:10:30;;;;;;;1.67;0.70;;;;;;;;;;5027204;28;20391;-57
2021/07/31 11:12:57;;;;;;;0.80;0.60;;;;;;;;;;5027325;28;20037;-55
2021/07/31 11:15:24;;;;;;;1.25;0.70;;;;;;;;;;5026581;28;20064;-56
2021/07/31 11:17:55;;;;;;;8.85;0.88;;;;;;;;;;5009329;28;20124;-56
2021/07/31 11:20:26;;;;;;;4.97;1.00;;;;;;;;;;5009070;28;20034;-57
2021/07/31 11:22:54;;;;;;;1.65;1.00;;;;;;;;;;5007441;28;20080;-56
2021/07/31 11:25:21;;;;;;;2.03;0.70;;;;;;;;;;5009846;28;20118;-56
2021/07/31 11:28:08;;;;;;;2.28;0.70;;;;;;;;;;5010230;28;20486;-57
2021/07/31 11:30:38;;;;;;;1.73;0.60;;;;;;;;;;5009181;28;20046;-55
2021/07/31 11:33:18;;;;;;;3.05;0.73;;;;;;;;;;5009460;28;20050;-56
2021/07/31 11:35:44;;;;;;;3.17;0.70;;;;;;;;;;5007350;28;20054;-57
2021/07/31 11:38:27;;;;;;;0.90;0.50;;;;;;;;;;5008349;28;20553;-57
2021/07/31 11:40:57;;;;;;;0.80;0.60;;;;;;;;;;5008999;28;20505;-57
2021/07/31 11:43:24;;;;;;;1.85;0.60;;;;;;;;;;5008743;28;20040;-57
2021/07/31 11:45:51;;;;;;;1.45;0.55;;;;;;;;;;5006048;28;20034;-56
2021/07/31 11:48:18;;;;;;;4.82;0.70;;;;;;;;;;5010520;28;20042;-57
2021/07/31 11:51:04;;;;;;;4.60;1.02;;;;;;;;;;5007458;28;20056;-57
2021/07/31 11:53:31;;;;;;;1.98;0.60;;;;;;;;;;5004445;28;20461;-56
2021/07/31 11:56:11;;;;;;;1.75;1.17;;;;;;;;;;5008064;28;20030;-57
2021/07/31 11:58:40;;;;;;;0.80;0.63;;;;;;;;;;5010389;28;20116;-56
2021/07/31 12:01:07;;;;;;;16.67;0.60;;;;;;;;;;5014322;28;20419;-55
2021/07/31 12:03:38;;;;;;;1.58;0.50;;;;;;;;;;5010487;28;20088;-56
2021/07/31 12:06:05;;;;;;;2.45;0.70;;;;;;;;;;5012615;28;20093;-56
2021/07/31 12:08:45;;;;;;;3.22;0.65;;;;;;;;;;5022595;28;20468;-54
2021/07/31 12:11:11;;;;;;;3.00;0.60;;;;;;;;;;5017101;28;20052;-56
2021/07/31 12:13:38;;;;;;;4.00;0.50;;;;;;;;;;5012722;28;20053;-56
2021/07/31 12:16:05;;;;;;;0.73;0.50;;;;;;;;;;5008804;28;20050;-57
2021/07/31 12:18:50;;;;;;;4.72;0.80;;;;;;;;;;5009926;28;20053;-56
2021/07/31 12:21:24;;;;;;;5.07;0.60;;;;;;;;;;5013657;28;20096;-57
2021/07/31 12:23:52;;;;;;;2.15;0.60;;;;;;;;;;5012276;28;20038;-55
2021/07/31 12:26:31;;;;;;;2.15;0.60;;;;;;;;;;5009929;28;20104;-53
2021/07/31 12:28:58;;;;;;;1.98;0.60;;;;;;;;;;5012990;28;20038;-57
2021/07/31 12:31:26;;;;;;;2.28;0.60;;;;;;;;;;5011641;28;20479;-54
2021/07/31 12:33:54;;;;;;;2.63;0.50;;;;;;;;;;5011273;28;20049;-56
2021/07/31 12:36:20;;;;;;;1.45;0.60;;;;;;;;;;5016602;28;20124;-57
2021/07/31 12:38:47;;;;;;;4.18;0.60;;;;;;;;;;5013095;28;20219;-57
2021/07/31 12:41:14;;;;;;;3.55;0.80;;;;;;;;;;5010233;28;20097;-57
2021/07/31 12:43:41;;;;;;;2.22;0.50;;;;;;;;;;5007272;28;20137;-55
2021/07/31 12:46:08;;;;;;;1.67;0.50;;;;;;;;;;5009889;28;20123;-56
2021/07/31 12:48:35;;;;;;;3.22;0.70;;;;;;;;;;5006022;28;20050;-56
2021/07/31 12:51:03;;;;;;;0.70;0.60;;;;;;;;;;5005610;28;20118;-57
2021/07/31 12:53:30;;;;;;;3.85;0.80;;;;;;;;;;5003443;28;20457;-41
2021/07/31 12:55:57;;;;;;;3.45;1.35;;;;;;;;;;5004804;28;20089;-41
2021/07/31 12:58:24;;;;;;;0.98;0.88;;;;;;;;;;5000534;28;20129;-41
2021/07/31 13:00:51;;;;;;;9.02;0.70;;;;;;;;;;5007919;28;20064;-40
2021/07/31 13:03:19;;;;;;;6.35;0.50;;;;;;;;;;5005102;28;20081;-40
2021/07/31 13:05:46;;;;;;;3.67;0.60;;;;;;;;;;5008686;28;20029;-41
2021/07/31 13:08:14;;;;;;;6.05;0.60;;;;;;;;;;5005069;28;20136;-41
2021/07/31 13:10:42;;;;;;;4.00;1.35;;;;;;;;;;5014495;28;20057;-41
2021/07/31 13:13:10;;;;;;;2.55;0.70;;;;;;;;;;5005164;28;20038;-40
2021/07/31 13:15:39;;;;;;;10.65;0.95;;;;;;;;;;5006913;28;20038;-41
2021/07/31 13:18:06;;;;;;;3.63;0.90;;;;;;;;;;5004628;28;20096;-41
2021/07/31 13:20:36;;;;;;;3.60;0.63;;;;;;;;;;5007722;28;20041;-41
2021/07/31 13:23:04;;;;;;;6.43;0.60;;;;;;;;;;5008711;28;20026;-40
2021/07/31 13:25:31;;;;;;;3.55;1.23;;;;;;;;;;5007306;28;20575;-42
2021/07/31 13:27:58;;;;;;;5.78;0.80;;;;;;;;;;5008368;28;20497;-40
2021/07/31 13:30:25;;;;;;;0.98;0.55;;;;;;;;;;5012231;28;20115;-42
2021/07/31 13:32:52;;;;;;;3.90;0.70;;;;;;;;;;5010272;28;20070;-40
2021/07/31 13:35:18;;;;;;;4.18;0.60;;;;;;;;;;5002153;28;20048;-40
2021/07/31 13:37:48;;;;;;;4.47;1.08;;;;;;;;;;5010115;28;20041;-41
2021/07/31 13:40:16;;;;;;;6.13;0.98;;;;;;;;;;5020922;28;20042;-40
2021/07/31 13:42:44;;;;;;;4.75;0.70;;;;;;;;;;5010526;28;20080;-41
2021/07/31 13:45:11;;;;;;;3.38;0.70;;;;;;;;;;5008641;28;20441;-41
2021/07/31 13:47:38;;;;;;;6.38;0.60;;;;;;;;;;5003134;28;20080;-40
2021/07/31 13:50:06;;;;;;;3.40;1.25;;;;;;;;;;5010979;28;20049;-40
2021/07/31 13:52:33;;;;;;;2.53;0.70;;;;;;;;;;5008774;28;20175;-39
2021/07/31 13:54:59;;;;;;;2.42;0.63;;;;;;;;;;5010009;28;20080;-40
2021/07/31 13:57:26;;;;;;;4.25;0.85;;;;;;;;;;5007201;28;20070;-40
2021/07/31 13:59:53;;;;;;;2.03;0.85;;;;;;;;;;5008246;28;20041;-39
2021/07/31 14:02:20;;;;;;;6.35;0.55;;;;;;;;;;5011041;28;20038;-40
2021/07/31 14:04:48;;;;;;;4.80;0.65;;;;;;;;;;5021705;28;20129;-42
2021/07/31 14:07:15;;;;;;;7.75;1.48;;;;;;;;;;5007902;28;20121;-41
2021/07/31 14:09:42;;;;;;;1.08;0.60;;;;;;;;;;5009693;28;20518;-40
2021/07/31 14:12:09;;;;;;;2.72;0.80;;;;;;;;;;5011799;28;20091;-39
2021/07/31 14:14:35;;;;;;;4.10;0.68;;;;;;;;;;5009019;28;20042;-41
2021/07/31 14:17:02;;;;;;;4.40;0.70;;;;;;;;;;5007508;28;20518;-39
2021/07/31 14:19:29;;;;;;;0.70;0.70;;;;;;;;;;5006083;28;20042;-40
2021/07/31 14:21:56;;;;;;;6.20;0.70;;;;;;;;;;5007555;28;20033;-39
2021/07/31 14:24:23;;;;;;;4.20;0.60;;;;;;;;;;5008995;28;20042;-39
2021/07/31 14:26:49;;;;;;;4.28;0.80;;;;;;;;;;5003767;28;20125;-39
2021/07/31 14:29:16;;;;;;;6.47;0.70;;;;;;;;;;5004832;28;20034;-39
2021/07/31 14:31:43;;;;;;;7.90;0.88;;;;;;;;;;5007380;28;20120;-39
2021/07/31 14:34:10;;;;;;;4.32;0.93;;;;;;;;;;5005353;28;20108;-39
2021/07/31 14:36:37;;;;;;;3.63;0.80;;;;;;;;;;4998229;28;20050;-39
2021/07/31 14:39:03;;;;;;;10.35;0.80;;;;;;;;;;5004667;28;20756;-40
2021/07/31 14:41:30;;;;;;;4.10;1.13;;;;;;;;;;5007727;28;20074;-39
2021/07/31 14:43:57;;;;;;;3.78;1.10;;;;;;;;;;5006928;28;20038;-39
2021/07/31 14:46:24;;;;;;;5.85;0.82;;;;;;;;;;5002009;28;20049;-40
2021/07/31 14:48:50;;;;;;;4.95;1.15;;;;;;;;;;5005947;28;20077;-39